sensor_id;sensor_type;location;lat;lon;timestamp;pressure;altitude;pressure_sealevel;temperature;humidity
71392;BME280;59205;50.610;12.638;2022-11-14T00:00:36;95881.22;;;6.20;87.80
71392;BME280;59205;50.610;12.638;2022-11-14T00:03:03;95887.75;;;6.19;87.70
71392;BME280;59205;50.610;12.638;2022-11-14T00:05:29;95879.38;;;6.17;87.88
71392;BME280;59205;50.610;12.638;2022-11-14T00:07:55;95874.31;;;6.19;87.35
71392;BME280;59205;50.610;12.638;2022-11-14T00:10:20;95878.00;;;6.25;86.90
71392;BME280;59205;50.610;12.638;2022-11-14T00:12:46;95877.50;;;6.30;86.41
71392;BME280;59205;50.610;12.638;2022-11-14T00:15:12;95879.34;;;6.33;86.33
71392;BME280;59205;50.610;12.638;2022-11-14T00:17:38;95876.13;;;6.38;85.74
71392;BME280;59205;50.610;12.638;2022-11-14T00:20:06;95877.84;;;6.32;85.84
71392;BME280;59205;50.610;12.638;2022-11-14T00:22:32;95879.66;;;6.35;85.91
71392;BME280;59205;50.610;12.638;2022-11-14T00:24:58;95874.28;;;6.35;86.05
71392;BME280;59205;50.610;12.638;2022-11-14T00:27:23;95876.31;;;6.31;86.32
71392;BME280;59205;50.610;12.638;2022-11-14T00:29:49;95869.09;;;6.28;86.77
71392;BME280;59205;50.610;12.638;2022-11-14T00:32:14;95879.19;;;6.24;86.61
71392;BME280;59205;50.610;12.638;2022-11-14T00:34:40;95864.97;;;6.23;87.08
71392;BME280;59205;50.610;12.638;2022-11-14T00:37:05;95872.41;;;6.19;87.54
71392;BME280;59205;50.610;12.638;2022-11-14T00:39:31;95872.16;;;6.14;87.90
71392;BME280;59205;50.610;12.638;2022-11-14T00:41:56;95857.19;;;6.13;87.68
71392;BME280;59205;50.610;12.638;2022-11-14T00:44:22;95855.75;;;6.08;87.85
71392;BME280;59205;50.610;12.638;2022-11-14T00:46:47;95860.41;;;6.08;87.67
71392;BME280;59205;50.610;12.638;2022-11-14T00:49:13;95865.09;;;6.04;87.75
71392;BME280;59205;50.610;12.638;2022-11-14T00:51:38;95847.16;;;6.13;87.37
71392;BME280;59205;50.610;12.638;2022-11-14T00:54:04;95848.59;;;6.18;86.35
71392;BME280;59205;50.610;12.638;2022-11-14T00:56:29;95854.31;;;6.20;86.52
71392;BME280;59205;50.610;12.638;2022-11-14T00:58:55;95834.16;;;6.12;87.13
71392;BME280;59205;50.610;12.638;2022-11-14T01:01:20;95846.25;;;6.04;87.47
71392;BME280;59205;50.610;12.638;2022-11-14T01:03:47;95826.59;;;6.07;87.60
71392;BME280;59205;50.610;12.638;2022-11-14T01:06:13;95826.59;;;6.07;87.17
71392;BME280;59205;50.610;12.638;2022-11-14T01:08:41;95819.69;;;6.06;86.93
71392;BME280;59205;50.610;12.638;2022-11-14T01:11:15;95818.88;;;6.09;86.76
71392;BME280;59205;50.610;12.638;2022-11-14T01:13:41;95810.28;;;6.14;86.50
71392;BME280;59205;50.610;12.638;2022-11-14T01:16:07;95809.63;;;6.10;86.19
71392;BME280;59205;50.610;12.638;2022-11-14T01:18:33;95797.69;;;6.11;85.92
71392;BME280;59205;50.610;12.638;2022-11-14T01:21:04;95809.22;;;6.24;85.69
71392;BME280;59205;50.610;12.638;2022-11-14T01:23:31;95804.88;;;6.14;85.59
71392;BME280;59205;50.610;12.638;2022-11-14T01:26:01;95795.03;;;6.23;84.91
71392;BME280;59205;50.610;12.638;2022-11-14T01:28:27;95797.47;;;6.18;85.43
71392;BME280;59205;50.610;12.638;2022-11-14T01:30:53;95793.28;;;6.17;85.13
71392;BME280;59205;50.610;12.638;2022-11-14T01:33:18;95802.66;;;6.25;84.63
71392;BME280;59205;50.610;12.638;2022-11-14T01:35:44;95791.69;;;6.19;84.82
71392;BME280;59205;50.610;12.638;2022-11-14T01:38:11;95784.88;;;6.15;84.73
71392;BME280;59205;50.610;12.638;2022-11-14T01:40:41;95789.03;;;6.32;83.64
71392;BME280;59205;50.610;12.638;2022-11-14T01:43:21;95761.63;;;6.49;82.42
71392;BME280;59205;50.610;12.638;2022-11-14T01:48:59;95774.19;;;6.40;82.61
71392;BME280;59205;50.610;12.638;2022-11-14T01:53:54;95773.97;;;6.47;81.80
71392;BME280;59205;50.610;12.638;2022-11-14T01:56:25;95776.88;;;6.40;82.48
71392;BME280;59205;50.610;12.638;2022-11-14T01:58:55;95773.44;;;6.39;82.55
71392;BME280;59205;50.610;12.638;2022-11-14T02:01:22;95772.44;;;6.33;83.03
71392;BME280;59205;50.610;12.638;2022-11-14T02:03:50;95772.44;;;6.33;83.01
71392;BME280;59205;50.610;12.638;2022-11-14T02:06:20;95774.94;;;6.28;83.41
71392;BME280;59205;50.610;12.638;2022-11-14T02:08:47;95774.25;;;6.24;83.98
71392;BME280;59205;50.610;12.638;2022-11-14T02:11:13;95772.00;;;6.22;84.52
71392;BME280;59205;50.610;12.638;2022-11-14T02:13:39;95771.34;;;6.18;84.71
71392;BME280;59205;50.610;12.638;2022-11-14T02:16:05;95762.38;;;6.09;84.88
71392;BME280;59205;50.610;12.638;2022-11-14T02:18:30;95771.63;;;6.08;85.51
71392;BME280;59205;50.610;12.638;2022-11-14T02:20:56;95763.56;;;6.08;85.09
71392;BME280;59205;50.610;12.638;2022-11-14T02:23:30;95772.47;;;6.05;85.65
71392;BME280;59205;50.610;12.638;2022-11-14T02:25:56;95775.50;;;6.07;84.95
71392;BME280;59205;50.610;12.638;2022-11-14T02:28:22;95767.19;;;6.01;85.68
71392;BME280;59205;50.610;12.638;2022-11-14T02:30:48;95781.25;;;5.93;86.57
71392;BME280;59205;50.610;12.638;2022-11-14T02:33:14;95773.00;;;5.84;87.42
71392;BME280;59205;50.610;12.638;2022-11-14T02:35:39;95769.31;;;5.78;88.09
71392;BME280;59205;50.610;12.638;2022-11-14T02:38:05;95771.00;;;5.72;88.35
71392;BME280;59205;50.610;12.638;2022-11-14T02:40:31;95778.81;;;5.66;89.31
71392;BME280;59205;50.610;12.638;2022-11-14T02:42:56;95776.97;;;5.63;89.25
71392;BME280;59205;50.610;12.638;2022-11-14T02:45:22;95780.25;;;5.55;90.32
71392;BME280;59205;50.610;12.638;2022-11-14T02:47:48;95785.31;;;5.53;90.71
71392;BME280;59205;50.610;12.638;2022-11-14T02:50:13;95762.38;;;5.48;90.95
71392;BME280;59205;50.610;12.638;2022-11-14T02:52:39;95774.88;;;5.55;90.56
71392;BME280;59205;50.610;12.638;2022-11-14T02:55:05;95770.28;;;5.55;90.70
71392;BME280;59205;50.610;12.638;2022-11-14T02:57:30;95773.38;;;5.54;90.77
71392;BME280;59205;50.610;12.638;2022-11-14T02:59:56;95771.22;;;5.49;90.81
71392;BME280;59205;50.610;12.638;2022-11-14T03:02:21;95753.47;;;5.51;91.15
71392;BME280;59205;50.610;12.638;2022-11-14T03:04:47;95771.94;;;5.49;91.75
71392;BME280;59205;50.610;12.638;2022-11-14T03:07:12;95771.22;;;5.49;91.33
71392;BME280;59205;50.610;12.638;2022-11-14T03:09:38;95767.09;;;5.44;91.38
71392;BME280;59205;50.610;12.638;2022-11-14T03:12:04;95764.06;;;5.42;91.67
71392;BME280;59205;50.610;12.638;2022-11-14T03:14:29;95782.09;;;5.42;91.94
71392;BME280;59205;50.610;12.638;2022-11-14T03:16:55;95775.59;;;5.43;92.12
71392;BME280;59205;50.610;12.638;2022-11-14T03:19:21;95778.75;;;5.38;92.23
71392;BME280;59205;50.610;12.638;2022-11-14T03:21:46;95774.41;;;5.44;92.15
71392;BME280;59205;50.610;12.638;2022-11-14T03:24:12;95787.59;;;5.38;92.48
71392;BME280;59205;50.610;12.638;2022-11-14T03:26:37;95776.72;;;5.42;92.25
71392;BME280;59205;50.610;12.638;2022-11-14T03:29:03;95774.47;;;5.40;92.26
71392;BME280;59205;50.610;12.638;2022-11-14T03:31:28;95770.47;;;5.32;92.96
71392;BME280;59205;50.610;12.638;2022-11-14T03:33:53;95766.09;;;5.38;92.91
71392;BME280;59205;50.610;12.638;2022-11-14T03:36:19;95751.66;;;5.32;92.89
71392;BME280;59205;50.610;12.638;2022-11-14T03:38:45;95756.34;;;5.28;93.02
71392;BME280;59205;50.610;12.638;2022-11-14T03:41:10;95753.25;;;5.30;93.28
71392;BME280;59205;50.610;12.638;2022-11-14T03:43:35;95749.72;;;5.33;93.20
71392;BME280;59205;50.610;12.638;2022-11-14T03:46:02;95753.31;;;5.26;93.49
71392;BME280;59205;50.610;12.638;2022-11-14T03:48:28;95745.44;;;5.35;93.01
71392;BME280;59205;50.610;12.638;2022-11-14T03:50:54;95748.88;;;5.36;92.83
71392;BME280;59205;50.610;12.638;2022-11-14T03:53:20;95747.28;;;5.38;92.20
71392;BME280;59205;50.610;12.638;2022-11-14T03:55:45;95749.78;;;5.45;91.94
71392;BME280;59205;50.610;12.638;2022-11-14T03:58:11;95759.78;;;5.45;91.67
71392;BME280;59205;50.610;12.638;2022-11-14T04:00:36;95758.84;;;5.51;91.45
71392;BME280;59205;50.610;12.638;2022-11-14T04:03:02;95741.66;;;5.49;91.30
71392;BME280;59205;50.610;12.638;2022-11-14T04:05:28;95734.75;;;5.64;90.69
71392;BME280;59205;50.610;12.638;2022-11-14T04:07:53;95741.63;;;5.65;90.49
71392;BME280;59205;50.610;12.638;2022-11-14T04:10:18;95725.16;;;5.63;90.45
71392;BME280;59205;50.610;12.638;2022-11-14T04:12:52;95729.00;;;5.62;90.47
71392;BME280;59205;50.610;12.638;2022-11-14T04:15:18;95729.19;;;5.55;90.74
71392;BME280;59205;50.610;12.638;2022-11-14T04:17:44;95735.00;;;5.53;91.14
71392;BME280;59205;50.610;12.638;2022-11-14T04:20:11;95722.06;;;5.48;91.50
71392;BME280;59205;50.610;12.638;2022-11-14T04:22:37;95729.91;;;5.43;91.95
71392;BME280;59205;50.610;12.638;2022-11-14T04:25:03;95730.41;;;5.38;92.44
71392;BME280;59205;50.610;12.638;2022-11-14T04:27:29;95726.84;;;5.41;93.28
71392;BME280;59205;50.610;12.638;2022-11-14T04:29:54;95728.31;;;5.29;93.66
71392;BME280;59205;50.610;12.638;2022-11-14T04:32:20;95724.81;;;5.32;93.85
71392;BME280;59205;50.610;12.638;2022-11-14T04:34:45;95718.56;;;5.35;93.90
71392;BME280;59205;50.610;12.638;2022-11-14T04:37:11;95715.19;;;5.31;94.05
71392;BME280;59205;50.610;12.638;2022-11-14T04:39:36;95715.63;;;5.30;94.51
71392;BME280;59205;50.610;12.638;2022-11-14T04:42:02;95712.63;;;5.28;94.57
71392;BME280;59205;50.610;12.638;2022-11-14T04:44:27;95716.41;;;5.14;95.19
71392;BME280;59205;50.610;12.638;2022-11-14T04:46:53;95718.00;;;5.12;95.71
71392;BME280;59205;50.610;12.638;2022-11-14T04:49:20;95720.69;;;5.12;95.92
71392;BME280;59205;50.610;12.638;2022-11-14T04:51:47;95730.84;;;5.04;96.33
71392;BME280;59205;50.610;12.638;2022-11-14T04:54:12;95734.53;;;5.10;95.88
71392;BME280;59205;50.610;12.638;2022-11-14T04:56:38;95726.50;;;5.10;95.80
71392;BME280;59205;50.610;12.638;2022-11-14T04:59:03;95730.59;;;5.15;95.74
71392;BME280;59205;50.610;12.638;2022-11-14T05:01:28;95719.69;;;5.06;96.00
71392;BME280;59205;50.610;12.638;2022-11-14T05:03:55;95718.00;;;5.12;95.94
71392;BME280;59205;50.610;12.638;2022-11-14T05:06:20;95719.56;;;5.09;95.90
71392;BME280;59205;50.610;12.638;2022-11-14T05:08:46;95706.16;;;5.09;96.09
71392;BME280;59205;50.610;12.638;2022-11-14T05:11:17;95711.03;;;4.98;96.43
71392;BME280;59205;50.610;12.638;2022-11-14T05:13:43;95717.59;;;4.97;96.86
71392;BME280;59205;50.610;12.638;2022-11-14T05:16:09;95717.84;;;5.03;96.95
71392;BME280;59205;50.610;12.638;2022-11-14T05:18:36;95702.91;;;5.02;96.58
71392;BME280;59205;50.610;12.638;2022-11-14T05:21:02;95712.69;;;5.08;96.20
71392;BME280;59205;50.610;12.638;2022-11-14T05:23:27;95720.09;;;5.04;96.26
71392;BME280;59205;50.610;12.638;2022-11-14T05:26:06;95712.47;;;5.03;96.34
71392;BME280;59205;50.610;12.638;2022-11-14T05:28:32;95709.00;;;5.02;96.13
71392;BME280;59205;50.610;12.638;2022-11-14T05:31:06;95714.72;;;5.04;96.27
71392;BME280;59205;50.610;12.638;2022-11-14T05:33:33;95720.53;;;5.03;96.58
71392;BME280;59205;50.610;12.638;2022-11-14T05:36:09;95718.69;;;5.00;96.35
71392;BME280;59205;50.610;12.638;2022-11-14T05:38:36;95719.44;;;5.00;96.37
71392;BME280;59205;50.610;12.638;2022-11-14T05:41:10;95717.91;;;4.99;96.74
71392;BME280;59205;50.610;12.638;2022-11-14T05:43:37;95711.28;;;4.88;97.08
71392;BME280;59205;50.610;12.638;2022-11-14T05:46:05;95716.47;;;4.95;97.29
71392;BME280;59205;50.610;12.638;2022-11-14T05:48:31;95713.06;;;4.95;96.92
71392;BME280;59205;50.610;12.638;2022-11-14T05:51:01;95718.31;;;4.98;97.00
71392;BME280;59205;50.610;12.638;2022-11-14T05:53:28;95726.22;;;4.89;97.06
71392;BME280;59205;50.610;12.638;2022-11-14T05:55:54;95727.72;;;4.90;97.09
71392;BME280;59205;50.610;12.638;2022-11-14T05:58:20;95723.13;;;4.91;97.59
71392;BME280;59205;50.610;12.638;2022-11-14T06:00:46;95742.16;;;4.96;97.20
71392;BME280;59205;50.610;12.638;2022-11-14T06:03:11;95738.47;;;4.90;97.19
71392;BME280;59205;50.610;12.638;2022-11-14T06:05:39;95737.47;;;4.84;97.65
71392;BME280;59205;50.610;12.638;2022-11-14T06:08:05;95731.59;;;4.89;97.41
71392;BME280;59205;50.610;12.638;2022-11-14T06:10:31;95751.88;;;4.90;97.43
71392;BME280;59205;50.610;12.638;2022-11-14T06:12:58;95744.34;;;4.85;97.62
71392;BME280;59205;50.610;12.638;2022-11-14T06:15:24;95749.47;;;4.96;97.59
71392;BME280;59205;50.610;12.638;2022-11-14T06:17:51;95741.56;;;4.89;97.66
71392;BME280;59205;50.610;12.638;2022-11-14T06:20:17;95744.94;;;4.93;97.54
71392;BME280;59205;50.610;12.638;2022-11-14T06:22:42;95745.50;;;4.84;97.35
71392;BME280;59205;50.610;12.638;2022-11-14T06:25:08;95743.91;;;4.87;97.86
71392;BME280;59205;50.610;12.638;2022-11-14T06:27:34;95739.03;;;4.82;97.60
71392;BME280;59205;50.610;12.638;2022-11-14T06:29:59;95745.19;;;4.82;97.92
71392;BME280;59205;50.610;12.638;2022-11-14T06:32:25;95741.13;;;4.74;98.37
71392;BME280;59205;50.610;12.638;2022-11-14T06:34:50;95745.59;;;4.81;98.04
71392;BME280;59205;50.610;12.638;2022-11-14T06:37:16;95744.16;;;4.92;97.90
71392;BME280;59205;50.610;12.638;2022-11-14T06:39:41;95748.88;;;5.20;96.20
71392;BME280;59205;50.610;12.638;2022-11-14T06:42:07;95745.44;;;5.35;94.86
71392;BME280;59205;50.610;12.638;2022-11-14T06:44:32;95759.09;;;5.57;93.18
71392;BME280;59205;50.610;12.638;2022-11-14T06:46:58;95760.19;;;6.04;91.12
71392;BME280;59205;50.610;12.638;2022-11-14T06:49:23;95756.91;;;6.25;88.46
71392;BME280;59205;50.610;12.638;2022-11-14T06:51:52;95762.88;;;6.45;86.97
71392;BME280;59205;50.610;12.638;2022-11-14T06:54:18;95759.47;;;6.44;86.79
71392;BME280;59205;50.610;12.638;2022-11-14T06:56:43;95771.44;;;6.56;86.52
71392;BME280;59205;50.610;12.638;2022-11-14T06:59:09;95756.25;;;6.62;86.26
71392;BME280;59205;50.610;12.638;2022-11-14T07:01:34;95759.41;;;6.97;84.70
71392;BME280;59205;50.610;12.638;2022-11-14T07:04:00;95772.22;;;7.18;83.17
71392;BME280;59205;50.610;12.638;2022-11-14T07:06:28;95770.72;;;7.30;81.76
71392;BME280;59205;50.610;12.638;2022-11-14T07:08:55;95776.31;;;7.35;81.05
71392;BME280;59205;50.610;12.638;2022-11-14T07:11:23;95761.88;;;7.76;80.00
71392;BME280;59205;50.610;12.638;2022-11-14T07:13:54;95772.94;;;7.56;80.14
71392;BME280;59205;50.610;12.638;2022-11-14T07:16:29;95761.69;;;8.04;77.99
71392;BME280;59205;50.610;12.638;2022-11-14T07:18:56;95757.03;;;8.05;77.71
71392;BME280;59205;50.610;12.638;2022-11-14T07:21:21;95760.03;;;7.85;78.59
71392;BME280;59205;50.610;12.638;2022-11-14T07:23:47;95765.41;;;6.52;84.35
71392;BME280;59205;50.610;12.638;2022-11-14T07:26:12;95762.97;;;6.29;86.70
71392;BME280;59205;50.610;12.638;2022-11-14T07:28:40;95764.00;;;6.19;87.51
71392;BME280;59205;50.610;12.638;2022-11-14T07:31:07;95762.09;;;6.19;89.23
71392;BME280;59205;50.610;12.638;2022-11-14T07:33:33;95761.75;;;6.17;89.18
71392;BME280;59205;50.610;12.638;2022-11-14T07:35:59;95771.84;;;6.13;88.32
71392;BME280;59205;50.610;12.638;2022-11-14T07:38:24;95763.66;;;6.04;88.39
71392;BME280;59205;50.610;12.638;2022-11-14T07:40:58;95774.72;;;6.06;88.90
71392;BME280;59205;50.610;12.638;2022-11-14T07:43:24;95771.28;;;6.06;88.85
71392;BME280;59205;50.610;12.638;2022-11-14T07:45:50;95772.97;;;6.00;89.25
71392;BME280;59205;50.610;12.638;2022-11-14T07:48:16;95774.31;;;6.08;88.58
71392;BME280;59205;50.610;12.638;2022-11-14T07:50:42;95771.09;;;6.13;88.87
71392;BME280;59205;50.610;12.638;2022-11-14T07:53:08;95787.03;;;6.20;87.84
71392;BME280;59205;50.610;12.638;2022-11-14T07:55:37;95784.69;;;6.22;88.38
71392;BME280;59205;50.610;12.638;2022-11-14T07:58:03;95770.81;;;6.23;88.43
71392;BME280;59205;50.610;12.638;2022-11-14T08:00:29;95767.72;;;6.37;87.54
71392;BME280;59205;50.610;12.638;2022-11-14T08:02:56;95755.13;;;6.34;87.61
71392;BME280;59205;50.610;12.638;2022-11-14T08:05:21;95758.34;;;6.29;87.07
71392;BME280;59205;50.610;12.638;2022-11-14T08:07:50;95758.91;;;6.37;87.10
71392;BME280;59205;50.610;12.638;2022-11-14T08:10:16;95764.94;;;6.41;86.72
71392;BME280;59205;50.610;12.638;2022-11-14T08:12:42;95771.94;;;6.38;87.20
71392;BME280;59205;50.610;12.638;2022-11-14T08:15:10;95777.75;;;6.37;87.00
71392;BME280;59205;50.610;12.638;2022-11-14T08:17:36;95757.84;;;6.47;85.95
71392;BME280;59205;50.610;12.638;2022-11-14T08:20:03;95743.66;;;6.59;85.98
71392;BME280;59205;50.610;12.638;2022-11-14T08:22:29;95737.84;;;6.60;86.54
71392;BME280;59205;50.610;12.638;2022-11-14T08:24:55;95750.44;;;6.63;85.56
71392;BME280;59205;50.610;12.638;2022-11-14T08:27:21;95748.19;;;6.62;85.37
71392;BME280;59205;50.610;12.638;2022-11-14T08:29:47;95730.63;;;6.69;84.81
71392;BME280;59205;50.610;12.638;2022-11-14T08:32:12;95727.50;;;6.83;84.77
71392;BME280;59205;50.610;12.638;2022-11-14T08:34:39;95723.09;;;6.89;84.04
71392;BME280;59205;50.610;12.638;2022-11-14T08:37:05;95739.78;;;6.97;84.17
71392;BME280;59205;50.610;12.638;2022-11-14T08:39:30;95746.47;;;7.05;83.34
71392;BME280;59205;50.610;12.638;2022-11-14T08:41:55;95764.34;;;6.99;83.56
71392;BME280;59205;50.610;12.638;2022-11-14T08:44:21;95737.31;;;7.02;82.56
71392;BME280;59205;50.610;12.638;2022-11-14T08:46:46;95730.31;;;7.17;83.05
71392;BME280;59205;50.610;12.638;2022-11-14T08:49:12;95734.16;;;7.29;82.31
71392;BME280;59205;50.610;12.638;2022-11-14T08:51:37;95732.66;;;7.28;81.62
71392;BME280;59205;50.610;12.638;2022-11-14T08:54:03;95730.38;;;7.39;81.35
71392;BME280;59205;50.610;12.638;2022-11-14T08:56:28;95719.38;;;7.46;81.32
71392;BME280;59205;50.610;12.638;2022-11-14T08:58:53;95714.91;;;7.52;81.41
71392;BME280;59205;50.610;12.638;2022-11-14T09:01:19;95723.59;;;7.68;80.96
71392;BME280;59205;50.610;12.638;2022-11-14T09:03:44;95721.91;;;7.62;80.49
71392;BME280;59205;50.610;12.638;2022-11-14T09:06:10;95715.91;;;7.79;79.33
71392;BME280;59205;50.610;12.638;2022-11-14T09:08:35;95727.41;;;7.92;78.89
71392;BME280;59205;50.610;12.638;2022-11-14T09:11:02;95712.16;;;7.98;77.79
71392;BME280;59205;50.610;12.638;2022-11-14T09:13:28;95718.00;;;8.18;77.94
71392;BME280;59205;50.610;12.638;2022-11-14T09:15:53;95728.94;;;8.15;77.11
71392;BME280;59205;50.610;12.638;2022-11-14T09:18:19;95729.19;;;8.29;75.75
71392;BME280;59205;50.610;12.638;2022-11-14T09:20:44;95718.75;;;8.40;75.39
71392;BME280;59205;50.610;12.638;2022-11-14T09:23:10;95732.66;;;10.05;69.59
71392;BME280;59205;50.610;12.638;2022-11-14T09:25:35;95736.25;;;11.62;63.14
71392;BME280;59205;50.610;12.638;2022-11-14T09:28:07;95728.53;;;12.22;60.11
71392;BME280;59205;50.610;12.638;2022-11-14T09:30:34;95720.81;;;12.87;58.20
71392;BME280;59205;50.610;12.638;2022-11-14T09:33:02;95730.75;;;13.05;56.29
71392;BME280;59205;50.610;12.638;2022-11-14T09:35:29;95727.84;;;13.08;56.18
71392;BME280;59205;50.610;12.638;2022-11-14T09:38:04;95721.84;;;13.19;55.47
71392;BME280;59205;50.610;12.638;2022-11-14T09:46:30;95705.03;;;13.55;54.44
71392;BME280;59205;50.610;12.638;2022-11-14T09:48:57;95698.41;;;14.21;52.83
71392;BME280;59205;50.610;12.638;2022-11-14T09:51:26;95702.75;;;14.84;50.93
71392;BME280;59205;50.610;12.638;2022-11-14T09:54:16;95702.28;;;14.85;50.89
71392;BME280;59205;50.610;12.638;2022-11-14T09:56:42;95705.78;;;15.22;49.60
71392;BME280;59205;50.610;12.638;2022-11-14T09:59:10;95712.75;;;15.23;49.89
71392;BME280;59205;50.610;12.638;2022-11-14T10:04:19;95700.09;;;15.26;48.51
71392;BME280;59205;50.610;12.638;2022-11-14T10:12:06;95695.16;;;15.66;47.90
71392;BME280;59205;50.610;12.638;2022-11-14T10:17:39;95692.66;;;16.32;46.04
71392;BME280;59205;50.610;12.638;2022-11-14T10:20:16;95688.59;;;16.00;45.92
71392;BME280;59205;50.610;12.638;2022-11-14T10:22:56;95686.00;;;16.44;45.31
71392;BME280;59205;50.610;12.638;2022-11-14T10:25:26;95687.50;;;17.32;43.32
71392;BME280;59205;50.610;12.638;2022-11-14T10:33:53;95685.75;;;17.57;41.51
71392;BME280;59205;50.610;12.638;2022-11-14T10:36:48;95693.69;;;18.39;40.81
71392;BME280;59205;50.610;12.638;2022-11-14T10:39:38;95699.03;;;18.61;39.95
71392;BME280;59205;50.610;12.638;2022-11-14T10:42:13;95696.69;;;19.11;38.82
71392;BME280;59205;50.610;12.638;2022-11-14T10:44:49;95688.69;;;17.75;41.59
71392;BME280;59205;50.610;12.638;2022-11-14T10:47:19;95687.66;;;17.89;40.42
71392;BME280;59205;50.610;12.638;2022-11-14T10:49:46;95689.78;;;17.45;42.07
71392;BME280;59205;50.610;12.638;2022-11-14T10:52:15;95692.91;;;18.44;40.90
71392;BME280;59205;50.610;12.638;2022-11-14T10:57:19;95688.16;;;18.85;38.93
71392;BME280;59205;50.610;12.638;2022-11-14T10:59:45;95688.53;;;19.00;37.50
71392;BME280;59205;50.610;12.638;2022-11-14T11:02:11;95678.88;;;20.19;36.35
71392;BME280;59205;50.610;12.638;2022-11-14T11:04:38;95677.41;;;19.46;36.67
71392;BME280;59205;50.610;12.638;2022-11-14T11:09:38;95668.13;;;19.73;37.04
71392;BME280;59205;50.610;12.638;2022-11-14T11:15:07;95661.59;;;18.18;37.60
71392;BME280;59205;50.610;12.638;2022-11-14T11:17:35;95653.47;;;19.65;36.71
71392;BME280;59205;50.610;12.638;2022-11-14T11:20:36;95662.38;;;19.95;35.35
71392;BME280;59205;50.610;12.638;2022-11-14T11:25:35;95658.94;;;19.89;34.98
71392;BME280;59205;50.610;12.638;2022-11-14T11:28:20;95658.53;;;20.40;33.70
71392;BME280;59205;50.610;12.638;2022-11-14T11:30:59;95666.50;;;18.41;36.72
71392;BME280;59205;50.610;12.638;2022-11-14T11:33:36;95662.63;;;17.19;39.76
71392;BME280;59205;50.610;12.638;2022-11-14T11:38:36;95666.88;;;19.50;34.42
71392;BME280;59205;50.610;12.638;2022-11-14T11:43:52;95664.38;;;19.52;33.99
71392;BME280;59205;50.610;12.638;2022-11-14T11:51:55;95689.44;;;19.43;34.99
71392;BME280;59205;50.610;12.638;2022-11-14T11:57:34;95686.28;;;19.33;34.96
71392;BME280;59205;50.610;12.638;2022-11-14T12:02:41;95689.28;;;18.20;36.55
71392;BME280;59205;50.610;12.638;2022-11-14T12:05:16;95696.09;;;17.97;37.39
71392;BME280;59205;50.610;12.638;2022-11-14T12:07:49;95694.81;;;18.95;35.79
71392;BME280;59205;50.610;12.638;2022-11-14T12:10:22;95686.63;;;18.90;35.30
71392;BME280;59205;50.610;12.638;2022-11-14T12:18:27;95701.16;;;18.44;35.92
71392;BME280;59205;50.610;12.638;2022-11-14T12:29:18;95690.03;;;17.41;38.09
71392;BME280;59205;50.610;12.638;2022-11-14T12:31:46;95678.69;;;17.89;37.08
71392;BME280;59205;50.610;12.638;2022-11-14T12:34:14;95682.84;;;18.06;36.74
71392;BME280;59205;50.610;12.638;2022-11-14T12:36:45;95687.25;;;19.36;34.68
71392;BME280;59205;50.610;12.638;2022-11-14T12:39:23;95696.25;;;18.67;36.13
71392;BME280;59205;50.610;12.638;2022-11-14T12:41:49;95684.09;;;18.05;36.29
71392;BME280;59205;50.610;12.638;2022-11-14T12:44:17;95672.59;;;19.52;34.71
71392;BME280;59205;50.610;12.638;2022-11-14T12:52:44;95673.56;;;19.30;35.39
71392;BME280;59205;50.610;12.638;2022-11-14T12:58:06;95660.88;;;18.12;36.87
71392;BME280;59205;50.610;12.638;2022-11-14T13:00:45;95661.38;;;19.50;34.15
71392;BME280;59205;50.610;12.638;2022-11-14T13:03:45;95661.28;;;17.75;36.53
71392;BME280;59205;50.610;12.638;2022-11-14T13:07:02;95658.31;;;19.00;35.22
71392;BME280;59205;50.610;12.638;2022-11-14T13:15:46;95657.28;;;15.06;42.14
71392;BME280;59205;50.610;12.638;2022-11-14T13:18:32;95651.22;;;13.89;45.27
71392;BME280;59205;50.610;12.638;2022-11-14T13:21:27;95650.59;;;14.45;44.23
71392;BME280;59205;50.610;12.638;2022-11-14T13:24:17;95650.00;;;13.51;45.57
71392;BME280;59205;50.610;12.638;2022-11-14T13:26:51;95652.13;;;14.26;45.87
71392;BME280;59205;50.610;12.638;2022-11-14T13:29:53;95650.75;;;14.98;43.67
71392;BME280;59205;50.610;12.638;2022-11-14T13:35:45;95649.84;;;14.19;44.82
71392;BME280;59205;50.610;12.638;2022-11-14T13:38:47;95640.84;;;12.94;47.92
71392;BME280;59205;50.610;12.638;2022-11-14T13:42:06;95630.97;;;12.82;48.83
71392;BME280;59205;50.610;12.638;2022-11-14T13:50:18;95631.25;;;13.72;45.58
71392;BME280;59205;50.610;12.638;2022-11-14T13:52:49;95629.44;;;13.10;47.29
71392;BME280;59205;50.610;12.638;2022-11-14T13:58:29;95627.34;;;12.70;48.53
71392;BME280;59205;50.610;12.638;2022-11-14T14:15:48;95617.16;;;12.22;50.63
71392;BME280;59205;50.610;12.638;2022-11-14T14:18:05;95615.88;;;12.03;51.22
71392;BME280;59205;50.610;12.638;2022-11-14T14:20:47;95620.34;;;12.06;51.44
71392;BME280;59205;50.610;12.638;2022-11-14T14:28:57;95618.66;;;11.94;52.69
71392;BME280;59205;50.610;12.638;2022-11-14T14:31:33;95621.25;;;11.88;52.77
71392;BME280;59205;50.610;12.638;2022-11-14T14:34:00;95618.13;;;11.67;53.95
71392;BME280;59205;50.610;12.638;2022-11-14T14:36:28;95615.94;;;11.56;54.23
71392;BME280;59205;50.610;12.638;2022-11-14T14:39:20;95616.41;;;11.55;54.69
71392;BME280;59205;50.610;12.638;2022-11-14T14:41:47;95618.25;;;11.49;54.38
71392;BME280;59205;50.610;12.638;2022-11-14T14:44:28;95614.72;;;11.57;54.38
71392;BME280;59205;50.610;12.638;2022-11-14T14:46:56;95616.38;;;11.40;54.93
71392;BME280;59205;50.610;12.638;2022-11-14T14:49:29;95616.94;;;11.21;56.54
71392;BME280;59205;50.610;12.638;2022-11-14T14:51:56;95611.19;;;11.28;56.26
71392;BME280;59205;50.610;12.638;2022-11-14T14:54:24;95616.59;;;11.04;56.51
71392;BME280;59205;50.610;12.638;2022-11-14T14:56:54;95615.44;;;10.96;57.41
71392;BME280;59205;50.610;12.638;2022-11-14T14:59:23;95612.41;;;10.94;57.42
71392;BME280;59205;50.610;12.638;2022-11-14T15:01:49;95626.53;;;10.75;57.90